createdAt,value
2022-11-06T00:01:12.282Z,3.00
2022-11-06T00:03:39.478Z,1.77
2022-11-06T00:06:26.438Z,4.38
2022-11-06T00:08:53.308Z,2.28
2022-11-06T00:11:20.349Z,1.98
2022-11-06T00:13:52.219Z,1.27
2022-11-06T00:16:19.980Z,2.72
2022-11-06T00:18:47.576Z,1.10
2022-11-06T00:21:28.285Z,1.90
2022-11-06T00:23:57.383Z,3.63
2022-11-06T00:26:26.248Z,2.00
2022-11-06T00:28:53.529Z,1.45
2022-11-06T00:31:25.802Z,1.60
2022-11-06T00:33:54.344Z,1.27
2022-11-06T00:36:22.758Z,1.83
2022-11-06T00:38:56.365Z,1.92
2022-11-06T00:41:24.079Z,1.08
2022-11-06T00:43:56.792Z,1.48
2022-11-06T00:46:24.007Z,2.03
2022-11-06T00:48:54.515Z,1.08
2022-11-06T00:51:27.114Z,2.28
2022-11-06T00:53:56.025Z,2.17
2022-11-06T00:56:23.081Z,1.05
2022-11-06T00:58:50.247Z,1.50
2022-11-06T01:01:25.399Z,0.93
2022-11-06T01:03:54.962Z,1.75
2022-11-06T01:08:51.432Z,1.23
2022-11-06T01:11:21.755Z,1.45
2022-11-06T01:13:55.298Z,1.48
2022-11-06T01:16:23.255Z,1.50
2022-11-06T01:18:50.346Z,2.47
2022-11-06T01:21:22.903Z,0.88
2022-11-06T01:23:54.779Z,2.80
2022-11-06T01:26:37.282Z,2.08
2022-11-06T01:31:52.330Z,2.25
2022-11-06T01:34:19.004Z,1.30
2022-11-06T01:36:46.714Z,1.00
2022-11-06T01:39:15.494Z,2.28
2022-11-06T01:41:45.586Z,1.43
2022-11-06T01:44:43.371Z,1.15
2022-11-06T01:47:28.332Z,1.05
2022-11-06T01:50:03.676Z,1.45
2022-11-06T01:52:32.601Z,3.50
2022-11-06T01:55:11.086Z,1.55
2022-11-06T01:57:38.346Z,1.23
2022-11-06T02:00:06.680Z,1.73
2022-11-06T02:02:34.647Z,3.25
2022-11-06T02:05:01.678Z,0.95
2022-11-06T02:07:28.817Z,2.28
2022-11-06T02:09:55.484Z,1.58
2022-11-06T02:12:54.285Z,1.60
2022-11-06T02:15:54.205Z,2.22
2022-11-06T02:18:39.261Z,1.83
2022-11-06T02:21:29.546Z,1.83
2022-11-06T02:24:05.401Z,1.42
2022-11-06T02:27:12.535Z,1.48
2022-11-06T02:29:52.278Z,2.00
2022-11-06T02:32:27.877Z,0.85
2022-11-06T02:34:56.590Z,0.88
2022-11-06T02:37:46.046Z,1.00
2022-11-06T02:40:14.980Z,1.60
2022-11-06T02:43:14.385Z,1.63
2022-11-06T02:45:58.416Z,1.63
2022-11-06T02:48:33.898Z,1.35
2022-11-06T02:51:05.589Z,1.50
2022-11-06T02:53:33.019Z,2.20
2022-11-06T02:56:10.366Z,1.13
2022-11-06T02:58:52.136Z,1.27
2022-11-06T03:01:29.902Z,3.22
2022-11-06T03:04:03.859Z,1.92
2022-11-06T03:06:39.634Z,1.70
2022-11-06T03:09:14.574Z,3.03
2022-11-06T03:11:46.369Z,1.05
2022-11-06T03:14:19.908Z,1.05
2022-11-06T03:16:49.133Z,1.10
2022-11-06T03:19:29.959Z,1.73
2022-11-06T03:22:07.796Z,1.33
2022-11-06T03:24:58.951Z,2.08
2022-11-06T03:28:06.431Z,1.23
2022-11-06T03:30:36.613Z,1.60
2022-11-06T03:33:15.394Z,1.55
2022-11-06T03:35:53.355Z,1.15
2022-11-06T03:38:28.338Z,2.80
2022-11-06T03:41:01.043Z,1.10
2022-11-06T03:43:32.155Z,1.80
2022-11-06T03:46:01.692Z,1.27
2022-11-06T03:48:42.093Z,1.08
2022-11-06T03:51:20.214Z,0.90
2022-11-06T03:53:52.101Z,2.95
2022-11-06T03:56:26.421Z,2.00
2022-11-06T03:58:55.947Z,1.25
2022-11-06T04:01:28.273Z,1.27
2022-11-06T04:03:59.947Z,1.65
2022-11-06T04:06:32.668Z,3.85
2022-11-06T04:09:22.582Z,0.95
2022-11-06T04:12:09.280Z,0.90
2022-11-06T04:14:39.642Z,1.92
2022-11-06T04:17:10.315Z,1.23
2022-11-06T04:19:37.130Z,1.60
2022-11-06T04:22:31.876Z,1.23
2022-11-06T04:25:44.311Z,0.80
2022-11-06T04:28:41.845Z,1.10
2022-11-06T04:31:53.902Z,2.10
2022-11-06T04:34:34.961Z,1.13
2022-11-06T04:37:12.006Z,0.98
2022-11-06T04:39:41.153Z,0.82
2022-11-06T04:42:28.196Z,0.80
2022-11-06T04:45:20.914Z,1.10
2022-11-06T04:47:48.198Z,1.27
2022-11-06T04:50:17.436Z,1.20
2022-11-06T04:52:45.198Z,1.23
2022-11-06T04:55:11.960Z,0.82
2022-11-06T04:57:38.512Z,2.15
2022-11-06T05:00:06.512Z,1.60
2022-11-06T05:02:33.236Z,1.05
2022-11-06T05:04:59.743Z,0.85
2022-11-06T05:07:26.350Z,1.40
2022-11-06T05:09:53.022Z,1.30
2022-11-06T05:12:19.633Z,1.33
2022-11-06T05:14:46.185Z,0.75
2022-11-06T05:17:12.917Z,1.13
2022-11-06T05:19:39.575Z,0.88
2022-11-06T05:22:24.635Z,0.80
2022-11-06T05:24:51.296Z,1.70
2022-11-06T05:27:17.984Z,0.85
2022-11-06T05:29:44.600Z,1.17
2022-11-06T05:32:11.330Z,2.95
2022-11-06T05:34:38.520Z,1.23
2022-11-06T05:37:05.320Z,1.58
2022-11-06T05:39:31.859Z,3.80
2022-11-06T05:41:58.450Z,0.98
2022-11-06T05:44:25.091Z,1.33
2022-11-06T05:46:51.778Z,2.15
2022-11-06T05:49:19.254Z,1.05
2022-11-06T05:51:46.629Z,2.13
2022-11-06T05:54:13.444Z,1.40
2022-11-06T05:56:40.315Z,1.70
2022-11-06T05:59:07.094Z,1.60
2022-11-06T06:01:33.902Z,2.63
2022-11-06T06:04:00.654Z,1.80
2022-11-06T06:06:27.435Z,3.35
2022-11-06T06:08:53.944Z,2.00
2022-11-06T06:11:20.485Z,1.10
2022-11-06T06:13:48.378Z,1.30
2022-11-06T06:16:15.868Z,2.60
2022-11-06T06:18:42.687Z,1.80
2022-11-06T06:21:09.327Z,2.85
2022-11-06T06:23:36.096Z,2.53
2022-11-06T06:26:02.998Z,3.67
2022-11-06T06:28:29.646Z,3.25
2022-11-06T06:31:01.301Z,2.67
2022-11-06T06:33:28.650Z,2.40
2022-11-06T06:35:55.190Z,2.97
2022-11-06T06:38:22.079Z,2.33
2022-11-06T06:40:48.850Z,2.70
2022-11-06T06:43:15.567Z,2.88
2022-11-06T06:45:42.374Z,3.08
2022-11-06T06:48:09.510Z,3.22
2022-11-06T06:50:36.124Z,3.03
2022-11-06T06:53:02.865Z,2.92
2022-11-06T06:55:29.558Z,3.72
2022-11-06T06:58:05.986Z,3.60
2022-11-06T07:00:32.938Z,3.25
2022-11-06T07:03:01.284Z,4.32
2022-11-06T07:05:27.930Z,2.50
2022-11-06T07:07:54.892Z,4.07
2022-11-06T07:10:21.713Z,2.90
2022-11-06T07:12:48.873Z,4.60
2022-11-06T07:15:15.643Z,2.35
2022-11-06T07:17:42.416Z,2.45
2022-11-06T07:20:10.079Z,4.47
2022-11-06T07:22:37.865Z,3.25
2022-11-06T07:25:06.222Z,2.95
2022-11-06T07:27:33.633Z,2.72
2022-11-06T07:30:00.689Z,3.55
2022-11-06T07:32:28.549Z,2.95
2022-11-06T07:34:55.866Z,3.08
2022-11-06T07:37:22.771Z,3.45
2022-11-06T07:39:49.468Z,2.67
2022-11-06T07:42:16.383Z,4.20
2022-11-06T07:44:56.340Z,3.08
2022-11-06T07:47:23.074Z,2.53
2022-11-06T07:49:51.115Z,3.50
2022-11-06T07:52:18.035Z,4.35
2022-11-06T07:54:47.466Z,3.13
2022-11-06T07:57:14.438Z,2.67
2022-11-06T07:59:42.498Z,2.78
2022-11-06T08:02:13.243Z,3.83
2022-11-06T08:04:40.229Z,3.83
2022-11-06T08:07:07.170Z,3.30
2022-11-06T08:09:33.767Z,5.03
2022-11-06T08:12:00.504Z,3.88
2022-11-06T08:14:27.397Z,6.20
2022-11-06T08:16:55.529Z,5.15
2022-11-06T08:19:22.172Z,6.07
2022-11-06T08:21:51.796Z,7.10
2022-11-06T08:24:21.947Z,6.15
2022-11-06T08:26:49.149Z,6.55
2022-11-06T08:29:16.143Z,6.57
2022-11-06T08:31:43.947Z,7.90
2022-11-06T08:34:10.562Z,7.45
2022-11-06T08:36:40.508Z,6.82
2022-11-06T08:39:07.350Z,7.13
2022-11-06T08:41:34.337Z,6.57
2022-11-06T08:44:00.875Z,6.97
2022-11-06T08:46:27.525Z,6.45
2022-11-06T08:48:54.111Z,9.52
2022-11-06T08:51:20.992Z,10.10
2022-11-06T08:53:47.831Z,7.55
2022-11-06T08:56:14.645Z,7.50
2022-11-06T08:58:41.271Z,6.93
2022-11-06T09:01:08.055Z,7.65
2022-11-06T09:03:34.770Z,10.23
2022-11-06T09:06:01.460Z,6.78
2022-11-06T09:08:28.071Z,7.40
2022-11-06T09:10:58.686Z,6.53
2022-11-06T09:13:26.446Z,6.40
2022-11-06T09:15:53.103Z,6.93
2022-11-06T09:18:19.716Z,8.15
2022-11-06T09:20:46.548Z,5.90
2022-11-06T09:23:13.540Z,7.53
2022-11-06T09:25:40.284Z,8.18
2022-11-06T09:28:06.917Z,8.50
2022-11-06T09:30:33.646Z,6.90
2022-11-06T09:33:02.442Z,8.23
2022-11-06T09:35:33.210Z,6.60
2022-11-06T09:38:04.564Z,9.82
2022-11-06T09:40:37.493Z,7.78
2022-11-06T09:43:16.512Z,8.68
2022-11-06T09:45:44.455Z,5.95
2022-11-06T09:48:10.987Z,5.50
2022-11-06T09:51:19.934Z,6.10
2022-11-06T09:56:28.407Z,7.25
2022-11-06T09:58:55.645Z,8.52
2022-11-06T10:01:27.663Z,5.25
2022-11-06T10:03:59.822Z,5.65
2022-11-06T10:06:28.193Z,6.82
2022-11-06T10:09:02.309Z,5.97
2022-11-06T10:11:49.337Z,4.53
2022-11-06T10:14:31.473Z,5.55
2022-11-06T10:17:00.723Z,4.47
2022-11-06T10:20:02.453Z,6.40
2022-11-06T10:22:39.079Z,4.78
2022-11-06T10:25:22.515Z,5.25
2022-11-06T10:28:02.335Z,4.75
2022-11-06T10:31:04.667Z,4.10
2022-11-06T10:33:54.689Z,6.22
2022-11-06T10:36:27.168Z,4.00
2022-11-06T10:38:55.409Z,4.65
2022-11-06T10:41:30.733Z,6.25
2022-11-06T10:44:03.047Z,4.88
2022-11-06T10:46:40.882Z,4.47
2022-11-06T10:49:27.690Z,5.40
2022-11-06T10:52:12.262Z,5.85
2022-11-06T10:55:22.499Z,4.05
2022-11-06T10:57:58.584Z,4.35
2022-11-06T11:00:28.726Z,4.70
2022-11-06T11:03:01.692Z,3.88
2022-11-06T11:05:44.357Z,6.07
2022-11-06T11:08:34.309Z,3.45
2022-11-06T11:11:14.197Z,2.90
2022-11-06T11:13:45.034Z,3.15
2022-11-06T11:16:16.976Z,3.60
2022-11-06T11:18:44.619Z,3.47
2022-11-06T11:21:18.596Z,3.28
2022-11-06T11:23:46.245Z,3.45
2022-11-06T11:26:18.627Z,4.05
2022-11-06T11:28:52.607Z,2.83
2022-11-06T11:31:19.880Z,3.25
2022-11-06T11:33:58.279Z,2.97
2022-11-06T11:36:25.203Z,3.17
2022-11-06T11:38:52.629Z,3.45
2022-11-06T11:41:19.263Z,3.50
2022-11-06T11:44:06.370Z,4.03
2022-11-06T11:46:33.885Z,4.32
2022-11-06T11:49:02.270Z,3.88
2022-11-06T11:51:42.889Z,2.13
2022-11-06T11:54:09.410Z,2.90
2022-11-06T11:57:04.017Z,4.05
2022-11-06T11:59:44.847Z,2.25
2022-11-06T12:02:20.850Z,2.95
2022-11-06T12:05:02.187Z,2.67
2022-11-06T12:07:46.147Z,5.40
2022-11-06T12:10:25.461Z,3.97
2022-11-06T12:12:53.823Z,3.13
2022-11-06T12:15:35.142Z,3.53
2022-11-06T12:18:11.828Z,2.28
2022-11-06T12:20:56.823Z,3.45
2022-11-06T12:23:47.742Z,2.95
2022-11-06T12:26:38.712Z,2.80
2022-11-06T12:29:34.857Z,1.95
2022-11-06T12:32:30.899Z,2.38
2022-11-06T12:35:27.901Z,3.38
2022-11-06T12:38:25.735Z,2.42
2022-11-06T12:40:59.427Z,3.58
2022-11-06T12:43:31.492Z,2.33
2022-11-06T12:46:00.911Z,2.33
2022-11-06T12:48:41.384Z,2.05
2022-11-06T12:51:45.536Z,2.35
2022-11-06T12:54:52.187Z,2.38
2022-11-06T12:57:33.590Z,3.03
2022-11-06T13:00:09.885Z,1.83
2022-11-06T13:02:45.130Z,2.10
2022-11-06T13:05:20.758Z,2.30
2022-11-06T13:08:03.842Z,2.17
2022-11-06T13:10:42.614Z,2.90
2022-11-06T13:13:42.548Z,2.28
2022-11-06T13:16:38.444Z,3.70
2022-11-06T13:19:20.902Z,3.72
2022-11-06T13:21:50.459Z,1.83
2022-11-06T13:24:34.160Z,2.10
2022-11-06T13:27:10.969Z,1.92
2022-11-06T13:29:38.836Z,2.95
2022-11-06T13:32:12.943Z,3.00
2022-11-06T13:34:43.060Z,2.45
2022-11-06T13:37:17.480Z,2.25
2022-11-06T13:39:50.078Z,3.10
2022-11-06T13:42:26.960Z,2.72
2022-11-06T13:44:55.601Z,2.85
2022-11-06T13:47:32.628Z,1.87
2022-11-06T13:50:13.104Z,3.00
2022-11-06T13:53:05.132Z,2.45
2022-11-06T13:56:00.095Z,1.85
2022-11-06T13:58:35.897Z,1.77
2022-11-06T14:01:40.434Z,2.13
2022-11-06T14:04:28.094Z,2.10
2022-11-06T14:06:58.511Z,3.22
2022-11-06T14:09:30.486Z,3.53
2022-11-06T14:12:01.358Z,1.55
2022-11-06T14:14:31.838Z,1.75
2022-11-06T14:17:16.692Z,1.98
2022-11-06T14:20:20.856Z,2.00
2022-11-06T14:22:47.511Z,2.05
2022-11-06T14:25:40.195Z,2.47
2022-11-06T14:28:08.855Z,1.50
2022-11-06T14:31:10.487Z,1.50
2022-11-06T14:33:42.972Z,1.93
2022-11-06T14:36:14.645Z,1.85
2022-11-06T14:38:42.665Z,1.67
2022-11-06T14:41:33.972Z,1.20
2022-11-06T14:44:06.600Z,1.85
2022-11-06T14:46:33.546Z,2.00
2022-11-06T14:49:21.603Z,1.30
2022-11-06T14:51:59.897Z,2.05
2022-11-06T14:54:26.621Z,2.33
2022-11-06T14:56:55.103Z,1.77
2022-11-06T14:59:29.612Z,1.40
2022-11-06T15:02:03.393Z,1.23
2022-11-06T15:04:33.654Z,2.08
2022-11-06T15:07:58.219Z,1.63
2022-11-06T15:10:52.460Z,2.47
2022-11-06T15:13:19.978Z,1.45
2022-11-06T15:15:51.100Z,1.77
2022-11-06T15:18:22.844Z,1.92
2022-11-06T15:20:59.933Z,1.35
2022-11-06T15:23:47.913Z,1.92
2022-11-06T15:26:33.948Z,1.67
2022-11-06T15:29:00.665Z,2.45
2022-11-06T15:31:29.992Z,1.40
2022-11-06T15:36:43.485Z,1.50
2022-11-06T15:39:31.958Z,1.85
2022-11-06T15:41:59.407Z,2.13
2022-11-06T15:44:46.412Z,1.35
2022-11-06T15:47:23.514Z,1.38
2022-11-06T15:50:12.855Z,1.40
2022-11-06T15:52:40.761Z,2.05
2022-11-06T15:55:32.667Z,1.67
2022-11-06T15:58:17.832Z,1.35
2022-11-06T16:00:45.637Z,1.20
2022-11-06T16:03:18.063Z,1.50
2022-11-06T16:05:46.011Z,2.05
2022-11-06T16:08:16.180Z,1.98
2022-11-06T16:10:44.639Z,1.23
2022-11-06T16:13:17.266Z,1.20
2022-11-06T16:15:56.983Z,1.13
2022-11-06T16:18:46.107Z,1.52
2022-11-06T16:23:49.999Z,1.08
2022-11-06T16:26:24.535Z,1.17
2022-11-06T16:28:53.515Z,2.42
2022-11-06T16:31:25.439Z,1.25
2022-11-06T16:33:55.645Z,0.88
2022-11-06T16:36:22.907Z,1.10
2022-11-06T16:38:49.633Z,1.45
2022-11-06T16:41:39.702Z,1.60
2022-11-06T16:44:38.417Z,1.88
2022-11-06T16:47:04.933Z,1.40
2022-11-06T16:49:35.526Z,2.28
2022-11-06T16:52:33.488Z,1.35
2022-11-06T16:55:16.698Z,0.95
2022-11-06T16:57:57.466Z,1.20
2022-11-06T17:00:27.352Z,1.55
2022-11-06T17:03:07.074Z,1.75
2022-11-06T17:05:36.791Z,3.08
2022-11-06T17:08:18.926Z,1.45
2022-11-06T17:10:46.179Z,2.13
2022-11-06T17:13:27.889Z,1.55
2022-11-06T17:15:57.684Z,2.08
2022-11-06T17:18:31.503Z,1.60
2022-11-06T17:21:06.494Z,1.48
2022-11-06T17:23:34.379Z,1.70
2022-11-06T17:26:10.850Z,1.63
2022-11-06T17:28:37.618Z,1.00
2022-11-06T17:31:04.709Z,1.20
2022-11-06T17:33:31.266Z,1.90
2022-11-06T17:35:57.931Z,1.40
2022-11-06T17:38:24.618Z,1.27
2022-11-06T17:40:51.846Z,1.42
2022-11-06T17:43:18.401Z,1.60
2022-11-06T17:45:47.979Z,2.13
2022-11-06T17:48:15.397Z,1.15
2022-11-06T17:51:14.363Z,1.95
2022-11-06T17:53:40.984Z,1.02
2022-11-06T17:56:07.772Z,1.10
2022-11-06T17:58:34.705Z,1.02
2022-11-06T18:01:09.506Z,1.33
2022-11-06T18:03:45.272Z,1.52
2022-11-06T18:06:14.222Z,2.15
2022-11-06T18:08:41.176Z,1.98
2022-11-06T18:11:08.474Z,1.27
2022-11-06T18:13:35.998Z,1.92
2022-11-06T18:16:03.435Z,2.10
2022-11-06T18:18:30.954Z,1.45
2022-11-06T18:20:57.462Z,1.20
2022-11-06T18:23:24.240Z,1.20
2022-11-06T18:25:57.682Z,1.25
2022-11-06T18:28:25.023Z,1.85
2022-11-06T18:30:52.521Z,1.55
2022-11-06T18:33:19.807Z,1.75
2022-11-06T18:35:46.867Z,1.20
2022-11-06T18:38:14.925Z,2.17
2022-11-06T18:40:45.036Z,2.47
2022-11-06T18:43:16.148Z,2.72
2022-11-06T18:45:42.752Z,2.03
2022-11-06T18:48:09.428Z,2.80
2022-11-06T18:50:36.741Z,2.10
2022-11-06T18:53:04.207Z,1.67
2022-11-06T18:55:31.629Z,2.13
2022-11-06T18:57:58.714Z,2.40
2022-11-06T19:00:26.113Z,2.65
2022-11-06T19:02:52.839Z,2.42
2022-11-06T19:05:19.679Z,2.15
2022-11-06T19:07:51.194Z,2.55
2022-11-06T19:10:19.594Z,2.40
2022-11-06T19:12:46.160Z,1.50
2022-11-06T19:15:13.047Z,2.85
2022-11-06T19:17:39.752Z,2.13
2022-11-06T19:20:08.575Z,2.38
2022-11-06T19:22:39.014Z,2.60
2022-11-06T19:25:06.160Z,1.63
2022-11-06T19:27:33.423Z,1.95
2022-11-06T19:30:00.085Z,1.88
2022-11-06T19:32:26.785Z,1.98
2022-11-06T19:34:53.565Z,2.47
2022-11-06T19:37:20.252Z,2.35
2022-11-06T19:39:46.885Z,2.53
2022-11-06T19:42:13.509Z,2.67
2022-11-06T19:44:40.540Z,2.17
2022-11-06T19:47:07.189Z,2.50
2022-11-06T19:49:33.825Z,2.20
2022-11-06T19:52:42.220Z,2.35
2022-11-06T19:54:47.145Z,2.78
2022-11-06T19:57:27.803Z,2.53
2022-11-06T19:59:56.996Z,3.60
2022-11-06T20:02:23.901Z,2.38
2022-11-06T20:04:50.786Z,3.05
2022-11-06T20:07:17.478Z,3.53
2022-11-06T20:09:44.430Z,2.10
2022-11-06T20:12:14.116Z,2.08
2022-11-06T20:14:40.882Z,2.15
2022-11-06T20:17:07.681Z,2.22
2022-11-06T20:19:34.265Z,1.80
2022-11-06T20:22:02.463Z,2.88
2022-11-06T20:24:29.152Z,2.05
2022-11-06T20:26:55.792Z,1.92
2022-11-06T20:29:22.409Z,2.33
2022-11-06T20:31:49.026Z,1.98
2022-11-06T20:34:16.125Z,1.80
2022-11-06T20:36:42.641Z,1.85
2022-11-06T20:39:09.737Z,1.92
2022-11-06T20:41:36.386Z,2.22
2022-11-06T20:44:04.226Z,1.42
2022-11-06T20:46:30.930Z,1.73
2022-11-06T20:48:58.294Z,1.50
2022-11-06T20:51:27.158Z,1.25
2022-11-06T20:53:54.173Z,2.10
2022-11-06T20:56:24.459Z,1.73
2022-11-06T20:58:54.079Z,2.50
2022-11-06T21:01:23.711Z,1.30
2022-11-06T21:03:52.067Z,1.90
2022-11-06T21:06:20.856Z,1.15
2022-11-06T21:08:48.064Z,1.63
2022-11-06T21:11:18.027Z,1.15
2022-11-06T21:13:46.997Z,1.50
2022-11-06T21:16:16.311Z,2.13
2022-11-06T21:18:43.274Z,1.13
2022-11-06T21:21:15.485Z,1.85
2022-11-06T21:23:42.460Z,1.17
2022-11-06T21:26:22.222Z,1.25
2022-11-06T21:28:49.624Z,2.33
2022-11-06T21:31:21.580Z,1.20
2022-11-06T21:33:50.087Z,1.65
2022-11-06T21:36:22.316Z,2.07
2022-11-06T21:38:49.537Z,1.30
2022-11-06T21:41:20.875Z,1.90
2022-11-06T21:43:50.706Z,1.42
2022-11-06T21:46:18.617Z,1.33
2022-11-06T21:48:47.457Z,1.92
2022-11-06T21:51:20.663Z,1.05
2022-11-06T21:54:07.049Z,1.20
2022-11-06T21:56:34.784Z,1.33
2022-11-06T21:59:02.875Z,1.20
2022-11-06T22:01:31.065Z,1.25
2022-11-06T22:03:58.791Z,1.17
2022-11-06T22:06:27.299Z,1.05
2022-11-06T22:08:55.950Z,2.53
2022-11-06T22:11:26.219Z,1.70
2022-11-06T22:13:54.269Z,1.02
2022-11-06T22:16:24.325Z,1.40
2022-11-06T22:18:51.303Z,5.25
2022-11-06T22:21:23.596Z,7.75
2022-11-06T22:23:50.980Z,1.60
2022-11-06T22:26:20.623Z,4.32
2022-11-06T22:28:47.603Z,3.22
2022-11-06T22:31:14.301Z,1.50
2022-11-06T22:33:40.988Z,1.15
2022-11-06T22:36:10.964Z,1.80
2022-11-06T22:38:38.836Z,1.40
2022-11-06T22:41:08.327Z,2.42
2022-11-06T22:46:06.016Z,4.05
2022-11-06T22:48:33.129Z,1.92
2022-11-06T22:51:17.679Z,1.20
2022-11-06T22:53:44.618Z,2.50
2022-11-06T22:56:12.687Z,2.85
2022-11-06T22:58:40.788Z,1.88
2022-11-06T23:01:08.696Z,1.05
2022-11-06T23:03:35.521Z,1.35
2022-11-06T23:06:07.294Z,1.88
2022-11-06T23:08:36.051Z,1.80
2022-11-06T23:11:08.599Z,2.53
2022-11-06T23:13:36.052Z,2.50
2022-11-06T23:16:08.331Z,2.67
2022-11-06T23:18:35.486Z,1.60
2022-11-06T23:21:02.169Z,2.35
2022-11-06T23:23:28.879Z,2.10
2022-11-06T23:25:55.410Z,1.27
2022-11-06T23:28:21.924Z,1.08
2022-11-06T23:30:48.683Z,1.33
2022-11-06T23:33:15.612Z,2.28
2022-11-06T23:35:42.396Z,1.40
2022-11-06T23:38:09.069Z,1.20
2022-11-06T23:40:35.736Z,2.08
2022-11-06T23:43:02.435Z,1.90
2022-11-06T23:45:47.766Z,1.65
2022-11-06T23:48:16.626Z,2.67
2022-11-06T23:50:47.076Z,2.00
2022-11-06T23:53:15.410Z,0.90
2022-11-06T23:55:42.373Z,1.87
2022-11-06T23:58:09.179Z,1.85
